Terminal Aerodrome Forecast
Issued by NWS

Current Version | Previous Version | Text Only | Print | Product List | Glossary On
Versions: 1 2 3 4 5 6 7 8 9 10 11 12 13 14 15 16 17 18 19 20 21 22 23 24 25 26 27
000
FTUS43 KMQT 190523
TAFSAW
TAF
KSAW 190523Z 1906/2006 32006KT 4SM -SHSN BKN025
     FM190800 01005KT 2SM -SHSN BKN015
     FM191100 36005KT 3SM -SHSN BKN015
     FM192000 35008KT 4SM -SHSN BKN025
     FM200200 33006KT 3SM -SHSN BKN015=

USA.gov is the U.S. government's official web portal to all federal, state and local government web resources and services.